ISR584 UBBB-LLBG
Flight info
| Callsign | ISR584 |
|---|---|
| Flight time | 2h 50m |
| Altitude | 35000 |
| Route | RASAM N199 LUSAL N319 ADEKI N644 BADIR DCT NOLGA UN61 TBN UW706 SIV UT284 EVKIT UB545 VESAR DCT EMEDA DCT TUZIB L189 ZUKKO |
| Aircraft | A339/H-SADE1E2E3GHIJ3J5M1P2RWXY/LB2D1 |
Departure
| Time | 2026-04-30 18:02 |
|---|---|
| Airport | Heydar Aliyev International Airport (UBBB) |
Arrival
| Time | 2026-04-30 20:52 |
|---|---|
| Airport | Ben Gurion International Airport (LLBG) |
| Time | Latitude | Longitude | Altitude | Speed | Heading |
|---|---|---|---|---|---|
| 2026-04-30 17:39 | 40.46584 | 50.05019 | 14 ft | 0 kts | 112° |
| 2026-04-30 17:47 | 40.46590 | 50.05002 | 16 ft | 2 kts | 99° |
| 2026-04-30 17:48 | 40.46603 | 50.04972 | 17 ft | 1 kts | 109° |
| 2026-04-30 17:48 | 40.46602 | 50.04926 | 17 ft | 0 kts | 28° |
| 2026-04-30 17:51 | 40.46603 | 50.04927 | 17 ft | 0 kts | 28° |
| 2026-04-30 17:52 | 40.46604 | 50.04928 | 18 ft | 0 kts | 28° |
| 2026-04-30 17:53 | 40.46592 | 50.04927 | 14 ft | 1 kts | 316° |
| 2026-04-30 17:54 | 40.46805 | 50.05042 | 14 ft | 3 kts | 10° |
| 2026-04-30 17:55 | 40.46924 | 50.05146 | 14 ft | 21 kts | 81° |
| 2026-04-30 17:56 | 40.46945 | 50.05857 | 14 ft | 18 kts | 88° |
| 2026-04-30 17:57 | 40.46768 | 50.06095 | 14 ft | 14 kts | 182° |
| 2026-04-30 17:58 | 40.46490 | 50.06094 | 14 ft | 13 kts | 180° |
| 2026-04-30 17:59 | 40.46136 | 50.06100 | 14 ft | 12 kts | 179° |
| 2026-04-30 18:00 | 40.45849 | 50.06198 | 14 ft | 10 kts | 95° |
| 2026-04-30 18:00 | 40.46084 | 50.06313 | 12 ft | 55 kts | 1° |
| 2026-04-30 18:01 | 40.47777 | 50.06295 | 55 ft | 175 kts | 360° |
| 2026-04-30 18:02 | 40.51464 | 50.05728 | 1984 ft | 184 kts | 344° |
| 2026-04-30 18:02 | 40.55741 | 50.04502 | 3183 ft | 236 kts | 348° |
| 2026-04-30 18:03 | 40.60353 | 50.01746 | 4301 ft | 261 kts | 300° |
| 2026-04-30 18:04 | 40.61459 | 49.94696 | 5857 ft | 270 kts | 279° |
| 2026-04-30 18:05 | 40.63443 | 49.84949 | 7989 ft | 279 kts | 287° |
| 2026-04-30 18:06 | 40.65737 | 49.75052 | 10225 ft | 286 kts | 287° |
| 2026-04-30 18:07 | 40.68247 | 49.64043 | 11161 ft | 336 kts | 287° |
| 2026-04-30 18:08 | 40.70268 | 49.55127 | 12688 ft | 341 kts | 287° |
| 2026-04-30 18:09 | 40.73003 | 49.43011 | 14665 ft | 348 kts | 287° |
| 2026-04-30 18:10 | 40.75551 | 49.31666 | 16323 ft | 354 kts | 286° |
| 2026-04-30 18:11 | 40.78351 | 49.19134 | 18101 ft | 361 kts | 285° |
| 2026-04-30 18:11 | 40.80484 | 49.09527 | 19314 ft | 366 kts | 285° |
| 2026-04-30 18:12 | 40.82640 | 48.99774 | 20509 ft | 371 kts | 285° |
| 2026-04-30 18:13 | 40.84088 | 48.93197 | 21302 ft | 375 kts | 285° |
| 2026-04-30 18:13 | 40.86283 | 48.83189 | 22491 ft | 381 kts | 285° |
| 2026-04-30 18:14 | 40.87759 | 48.76433 | 23311 ft | 385 kts | 285° |
| 2026-04-30 18:15 | 40.89994 | 48.66164 | 24447 ft | 389 kts | 285° |
| 2026-04-30 18:15 | 40.92238 | 48.55804 | 25511 ft | 393 kts | 285° |
| 2026-04-30 18:16 | 40.93747 | 48.48811 | 26180 ft | 397 kts | 285° |
| 2026-04-30 18:16 | 40.95260 | 48.41770 | 26859 ft | 400 kts | 285° |
| 2026-04-30 18:17 | 40.96021 | 48.38224 | 27197 ft | 401 kts | 285° |
| 2026-04-30 18:17 | 40.96781 | 48.34673 | 27534 ft | 402 kts | 285° |
| 2026-04-30 18:17 | 40.98309 | 48.27523 | 28195 ft | 405 kts | 285° |
| 2026-04-30 18:18 | 40.99076 | 48.23921 | 28528 ft | 407 kts | 285° |
| 2026-04-30 18:18 | 40.99844 | 48.20317 | 28856 ft | 408 kts | 285° |
| 2026-04-30 18:18 | 41.00613 | 48.16697 | 29165 ft | 410 kts | 284° |
| 2026-04-30 18:18 | 41.01382 | 48.13067 | 29452 ft | 411 kts | 284° |
| 2026-04-30 18:19 | 41.02156 | 48.09413 | 29757 ft | 413 kts | 284° |
| 2026-04-30 18:19 | 41.02930 | 48.05753 | 30104 ft | 414 kts | 284° |
| 2026-04-30 18:19 | 41.03696 | 48.02119 | 30393 ft | 415 kts | 284° |
| 2026-04-30 18:19 | 41.04472 | 47.98427 | 30664 ft | 417 kts | 284° |
| 2026-04-30 18:20 | 41.05250 | 47.94726 | 30937 ft | 418 kts | 284° |
| 2026-04-30 18:20 | 41.06041 | 47.90956 | 31205 ft | 420 kts | 284° |
| 2026-04-30 18:20 | 41.06824 | 47.87216 | 31492 ft | 422 kts | 284° |
| 2026-04-30 18:20 | 41.07597 | 47.83519 | 31731 ft | 424 kts | 284° |
| 2026-04-30 18:21 | 41.08382 | 47.79755 | 32023 ft | 424 kts | 284° |
| 2026-04-30 18:21 | 41.09170 | 47.75971 | 32241 ft | 427 kts | 284° |
| 2026-04-30 18:21 | 41.09958 | 47.72179 | 32527 ft | 427 kts | 284° |
| 2026-04-30 18:21 | 41.10749 | 47.68368 | 32721 ft | 429 kts | 284° |
| 2026-04-30 18:22 | 41.11540 | 47.64550 | 32939 ft | 430 kts | 284° |
| 2026-04-30 18:22 | 41.13123 | 47.56884 | 33295 ft | 432 kts | 284° |
| 2026-04-30 18:22 | 41.13916 | 47.53032 | 33436 ft | 433 kts | 284° |
| 2026-04-30 18:23 | 41.15506 | 47.45294 | 33699 ft | 435 kts | 284° |
| 2026-04-30 18:23 | 41.16298 | 47.41427 | 33894 ft | 434 kts | 284° |
| 2026-04-30 18:23 | 41.17090 | 47.37558 | 34081 ft | 434 kts | 284° |
| 2026-04-30 18:24 | 41.18664 | 47.29838 | 34391 ft | 433 kts | 284° |
| 2026-04-30 18:24 | 41.19449 | 47.25978 | 34522 ft | 433 kts | 284° |
| 2026-04-30 18:24 | 41.20232 | 47.22120 | 34668 ft | 433 kts | 284° |
| 2026-04-30 18:25 | 41.21015 | 47.18253 | 34791 ft | 433 kts | 283° |
| 2026-04-30 18:25 | 41.22574 | 47.10528 | 35064 ft | 433 kts | 283° |
| 2026-04-30 18:25 | 41.23352 | 47.06666 | 35190 ft | 433 kts | 283° |
| 2026-04-30 18:26 | 41.24906 | 46.98931 | 35445 ft | 433 kts | 283° |
| 2026-04-30 18:26 | 41.25680 | 46.95065 | 35558 ft | 433 kts | 283° |
| 2026-04-30 18:26 | 41.26452 | 46.91199 | 35693 ft | 433 kts | 283° |
| 2026-04-30 18:27 | 41.27994 | 46.83472 | 35933 ft | 433 kts | 283° |
| 2026-04-30 18:27 | 41.28765 | 46.79602 | 36047 ft | 433 kts | 283° |
| 2026-04-30 18:28 | 41.30128 | 46.71823 | 36209 ft | 431 kts | 278° |
| 2026-04-30 18:28 | 41.31752 | 46.60130 | 36211 ft | 431 kts | 279° |
| 2026-04-30 18:29 | 41.33944 | 46.44473 | 36204 ft | 430 kts | 279° |
| 2026-04-30 18:30 | 41.36103 | 46.28803 | 36183 ft | 430 kts | 279° |
| 2026-04-30 18:31 | 41.37706 | 46.17054 | 36176 ft | 430 kts | 279° |
| 2026-04-30 18:32 | 41.39300 | 46.05291 | 36172 ft | 430 kts | 279° |
| 2026-04-30 18:33 | 41.40880 | 45.93521 | 36170 ft | 430 kts | 279° |
| 2026-04-30 18:33 | 41.42449 | 45.81754 | 36165 ft | 430 kts | 278° |
| 2026-04-30 18:34 | 41.44004 | 45.69986 | 36162 ft | 430 kts | 278° |
| 2026-04-30 18:35 | 41.45032 | 45.62155 | 36154 ft | 429 kts | 278° |
| 2026-04-30 18:35 | 41.46054 | 45.54325 | 36157 ft | 429 kts | 278° |
| 2026-04-30 18:36 | 41.47577 | 45.42584 | 36149 ft | 429 kts | 278° |
| 2026-04-30 18:37 | 41.48276 | 45.30802 | 36142 ft | 427 kts | 268° |
| 2026-04-30 18:37 | 41.48140 | 45.22893 | 36144 ft | 427 kts | 269° |
| 2026-04-30 18:38 | 41.48034 | 45.14977 | 36145 ft | 427 kts | 269° |
| 2026-04-30 18:38 | 41.47919 | 45.07062 | 36150 ft | 427 kts | 268° |
| 2026-04-30 18:39 | 41.47795 | 44.99161 | 36151 ft | 426 kts | 268° |
| 2026-04-30 18:39 | 41.47665 | 44.91251 | 36147 ft | 426 kts | 268° |
| 2026-04-30 18:40 | 41.47530 | 44.83345 | 36149 ft | 426 kts | 268° |
| 2026-04-30 18:40 | 41.47390 | 44.75441 | 36152 ft | 426 kts | 268° |
| 2026-04-30 18:41 | 41.47244 | 44.67543 | 36149 ft | 426 kts | 268° |
| 2026-04-30 18:41 | 41.47093 | 44.59645 | 36152 ft | 426 kts | 268° |
| 2026-04-30 18:42 | 41.46938 | 44.51749 | 36155 ft | 426 kts | 268° |
| 2026-04-30 18:42 | 41.46692 | 44.39917 | 36154 ft | 426 kts | 268° |
| 2026-04-30 18:45 | 41.45691 | 43.96550 | 36150 ft | 426 kts | 267° |
| 2026-04-30 18:46 | 41.45492 | 43.88661 | 36147 ft | 426 kts | 267° |
| 2026-04-30 18:46 | 41.45287 | 43.80764 | 36144 ft | 426 kts | 267° |
| 2026-04-30 18:47 | 41.45077 | 43.72876 | 36145 ft | 425 kts | 267° |
| 2026-04-30 18:47 | 41.44861 | 43.64992 | 36138 ft | 425 kts | 267° |
| 2026-04-30 18:48 | 41.44640 | 43.57104 | 36139 ft | 426 kts | 267° |
| 2026-04-30 18:48 | 41.44413 | 43.49224 | 36141 ft | 426 kts | 267° |
| 2026-04-30 18:49 | 41.44182 | 43.41334 | 36132 ft | 425 kts | 267° |
| 2026-04-30 18:49 | 41.43945 | 43.33465 | 36130 ft | 425 kts | 267° |
| 2026-04-30 18:50 | 41.43703 | 43.25602 | 36131 ft | 424 kts | 267° |
| 2026-04-30 18:50 | 41.43456 | 43.17753 | 36131 ft | 424 kts | 267° |
| 2026-04-30 18:51 | 41.43204 | 43.09908 | 36133 ft | 423 kts | 267° |
| 2026-04-30 18:51 | 41.42949 | 43.02079 | 36126 ft | 423 kts | 267° |
| 2026-04-30 18:52 | 41.42393 | 42.94281 | 36123 ft | 423 kts | 260° |
| 2026-04-30 18:52 | 41.41421 | 42.86557 | 36130 ft | 423 kts | 261° |
| 2026-04-30 18:53 | 41.40484 | 42.78816 | 36132 ft | 423 kts | 261° |
| 2026-04-30 18:53 | 41.39538 | 42.71069 | 36137 ft | 423 kts | 261° |
| 2026-04-30 18:54 | 41.38584 | 42.63335 | 36139 ft | 423 kts | 261° |
| 2026-04-30 18:54 | 41.37626 | 42.55612 | 36133 ft | 423 kts | 261° |
| 2026-04-30 18:55 | 41.36973 | 42.50371 | 36132 ft | 423 kts | 261° |
| 2026-04-30 18:55 | 41.35527 | 42.38841 | 36133 ft | 423 kts | 261° |
| 2026-04-30 18:56 | 41.34080 | 42.27399 | 36125 ft | 423 kts | 260° |
| 2026-04-30 18:57 | 41.32606 | 42.15832 | 36127 ft | 422 kts | 260° |
| 2026-04-30 18:57 | 41.31615 | 42.08129 | 36124 ft | 423 kts | 260° |
| 2026-04-30 18:58 | 41.30291 | 41.97876 | 36121 ft | 422 kts | 260° |
| 2026-04-30 18:59 | 41.28775 | 41.86331 | 36119 ft | 423 kts | 260° |
| 2026-04-30 19:00 | 41.26734 | 41.70940 | 36116 ft | 422 kts | 260° |
| 2026-04-30 19:01 | 41.24677 | 41.55585 | 36114 ft | 422 kts | 260° |
| 2026-04-30 19:02 | 41.23126 | 41.44097 | 36108 ft | 421 kts | 260° |
| 2026-04-30 19:03 | 41.21036 | 41.28800 | 36105 ft | 421 kts | 259° |
| 2026-04-30 19:04 | 41.18926 | 41.13511 | 36106 ft | 421 kts | 259° |
| 2026-04-30 19:05 | 41.16795 | 40.98219 | 36102 ft | 421 kts | 259° |
| 2026-04-30 19:06 | 41.14644 | 40.82938 | 36100 ft | 421 kts | 259° |
| 2026-04-30 19:06 | 41.13028 | 40.71546 | 36098 ft | 421 kts | 259° |
| 2026-04-30 19:07 | 41.11391 | 40.60101 | 36101 ft | 421 kts | 259° |
| 2026-04-30 19:08 | 41.09192 | 40.44863 | 36095 ft | 421 kts | 259° |
| 2026-04-30 19:09 | 41.07529 | 40.33433 | 36084 ft | 421 kts | 259° |
| 2026-04-30 19:09 | 41.06414 | 40.25816 | 36090 ft | 421 kts | 259° |
| 2026-04-30 19:10 | 41.04168 | 40.10584 | 36106 ft | 421 kts | 259° |
| 2026-04-30 19:11 | 41.02470 | 39.99164 | 36117 ft | 421 kts | 258° |
| 2026-04-30 19:12 | 41.01331 | 39.91550 | 36130 ft | 422 kts | 258° |
| 2026-04-30 19:12 | 41.00143 | 39.83947 | 36130 ft | 422 kts | 256° |
| 2026-04-30 19:13 | 40.95629 | 39.69643 | 36122 ft | 423 kts | 244° |
| 2026-04-30 19:14 | 40.92907 | 39.62739 | 36125 ft | 423 kts | 244° |
| 2026-04-30 19:14 | 40.90188 | 39.55823 | 36112 ft | 424 kts | 244° |
| 2026-04-30 19:15 | 40.87463 | 39.48928 | 36098 ft | 424 kts | 244° |
| 2026-04-30 19:15 | 40.83359 | 39.38573 | 36079 ft | 425 kts | 244° |
| 2026-04-30 19:16 | 40.80609 | 39.31656 | 36073 ft | 426 kts | 244° |
| 2026-04-30 19:17 | 40.76472 | 39.21280 | 36074 ft | 426 kts | 243° |
| 2026-04-30 19:17 | 40.72322 | 39.10907 | 36059 ft | 427 kts | 243° |
| 2026-04-30 19:18 | 40.68167 | 39.00561 | 36053 ft | 426 kts | 243° |
| 2026-04-30 19:19 | 40.65382 | 38.93647 | 36055 ft | 427 kts | 243° |
| 2026-04-30 19:19 | 40.61214 | 38.83343 | 36054 ft | 428 kts | 243° |
| 2026-04-30 19:20 | 40.58406 | 38.76450 | 36050 ft | 428 kts | 243° |
| 2026-04-30 19:21 | 40.54311 | 38.66409 | 36054 ft | 428 kts | 243° |
| 2026-04-30 19:22 | 40.48623 | 38.52634 | 36046 ft | 429 kts | 242° |
| 2026-04-30 19:23 | 40.39791 | 38.32172 | 36038 ft | 430 kts | 242° |
| 2026-04-30 19:24 | 40.35476 | 38.21884 | 36034 ft | 429 kts | 244° |
| 2026-04-30 19:25 | 40.28429 | 38.04657 | 36024 ft | 429 kts | 242° |
| 2026-04-30 19:26 | 40.21221 | 37.92332 | 36015 ft | 435 kts | 220° |
| 2026-04-30 19:27 | 40.14124 | 37.84937 | 36014 ft | 435 kts | 223° |
| 2026-04-30 19:28 | 40.07293 | 37.77119 | 36018 ft | 436 kts | 224° |
| 2026-04-30 19:29 | 39.98197 | 37.66640 | 36017 ft | 436 kts | 224° |
| 2026-04-30 19:30 | 39.89077 | 37.56195 | 36016 ft | 437 kts | 224° |
| 2026-04-30 19:31 | 39.79936 | 37.45763 | 36012 ft | 437 kts | 224° |
| 2026-04-30 19:31 | 39.73061 | 37.37944 | 36018 ft | 438 kts | 224° |
| 2026-04-30 19:32 | 39.68472 | 37.32736 | 36017 ft | 438 kts | 224° |
| 2026-04-30 19:32 | 39.63872 | 37.27525 | 36028 ft | 439 kts | 223° |
| 2026-04-30 19:33 | 39.59275 | 37.22327 | 36029 ft | 439 kts | 223° |
| 2026-04-30 19:33 | 39.54663 | 37.17123 | 36026 ft | 439 kts | 223° |
| 2026-04-30 19:34 | 39.50052 | 37.11928 | 36023 ft | 440 kts | 223° |
| 2026-04-30 19:35 | 39.43123 | 37.04140 | 36019 ft | 440 kts | 223° |
| 2026-04-30 19:35 | 39.38492 | 36.98947 | 36021 ft | 441 kts | 223° |
| 2026-04-30 19:36 | 39.33857 | 36.93758 | 36022 ft | 441 kts | 223° |
| 2026-04-30 19:36 | 39.26898 | 36.85985 | 36023 ft | 442 kts | 223° |
| 2026-04-30 19:37 | 39.22245 | 36.80801 | 36023 ft | 442 kts | 223° |
| 2026-04-30 19:37 | 39.17617 | 36.75653 | 36025 ft | 442 kts | 223° |
| 2026-04-30 19:38 | 39.12923 | 36.70442 | 36027 ft | 443 kts | 223° |
| 2026-04-30 19:38 | 39.08022 | 36.65713 | 36026 ft | 447 kts | 210° |
| 2026-04-30 19:39 | 39.02333 | 36.62293 | 36028 ft | 449 kts | 207° |
| 2026-04-30 19:39 | 38.96706 | 36.58805 | 36037 ft | 449 kts | 209° |
| 2026-04-30 19:40 | 38.91144 | 36.55150 | 36038 ft | 449 kts | 210° |
| 2026-04-30 19:40 | 38.85588 | 36.51461 | 36039 ft | 450 kts | 210° |
| 2026-04-30 19:41 | 38.80023 | 36.47777 | 36045 ft | 451 kts | 210° |
| 2026-04-30 19:41 | 38.74443 | 36.44094 | 36051 ft | 451 kts | 210° |
| 2026-04-30 19:42 | 38.69801 | 36.41037 | 36057 ft | 452 kts | 210° |
| 2026-04-30 19:42 | 38.64206 | 36.37359 | 36058 ft | 453 kts | 210° |
| 2026-04-30 19:43 | 38.58603 | 36.33680 | 36072 ft | 453 kts | 210° |
| 2026-04-30 19:44 | 38.50189 | 36.28169 | 36086 ft | 453 kts | 210° |
| 2026-04-30 19:44 | 38.44588 | 36.24508 | 36090 ft | 452 kts | 210° |
| 2026-04-30 19:45 | 38.38978 | 36.20848 | 36084 ft | 453 kts | 210° |
| 2026-04-30 19:45 | 38.33362 | 36.17191 | 36074 ft | 453 kts | 210° |
| 2026-04-30 19:46 | 38.27748 | 36.13542 | 36080 ft | 453 kts | 210° |
| 2026-04-30 19:46 | 38.22136 | 36.09901 | 36084 ft | 454 kts | 210° |
| 2026-04-30 19:47 | 38.16511 | 36.06255 | 36084 ft | 454 kts | 210° |
| 2026-04-30 19:47 | 38.10883 | 36.02616 | 36084 ft | 454 kts | 209° |
| 2026-04-30 19:48 | 38.05254 | 35.98982 | 36081 ft | 454 kts | 209° |
| 2026-04-30 19:48 | 37.99622 | 35.95353 | 36079 ft | 454 kts | 209° |
| 2026-04-30 19:49 | 37.93983 | 35.91724 | 36074 ft | 454 kts | 209° |
| 2026-04-30 19:49 | 37.85516 | 35.86289 | 36065 ft | 455 kts | 209° |
| 2026-04-30 19:50 | 37.79868 | 35.82672 | 36053 ft | 455 kts | 209° |
| 2026-04-30 19:50 | 37.74217 | 35.79056 | 36049 ft | 455 kts | 209° |
| 2026-04-30 19:51 | 37.68555 | 35.75440 | 36046 ft | 456 kts | 209° |
| 2026-04-30 19:51 | 37.62916 | 35.71847 | 36038 ft | 457 kts | 209° |
| 2026-04-30 19:52 | 37.57244 | 35.68239 | 36032 ft | 457 kts | 209° |
| 2026-04-30 19:52 | 37.51560 | 35.64629 | 36025 ft | 457 kts | 209° |
| 2026-04-30 19:53 | 37.45872 | 35.61024 | 36019 ft | 457 kts | 209° |
| 2026-04-30 19:53 | 37.40185 | 35.57424 | 36010 ft | 458 kts | 209° |
| 2026-04-30 19:54 | 37.34495 | 35.53829 | 36010 ft | 458 kts | 209° |
| 2026-04-30 19:54 | 37.28802 | 35.50237 | 36000 ft | 458 kts | 208° |
| 2026-04-30 19:55 | 37.23106 | 35.46651 | 35992 ft | 458 kts | 208° |
| 2026-04-30 19:55 | 37.17400 | 35.43063 | 35992 ft | 459 kts | 208° |
| 2026-04-30 19:56 | 37.11695 | 35.39483 | 35987 ft | 458 kts | 208° |
| 2026-04-30 19:56 | 37.05990 | 35.35909 | 35987 ft | 459 kts | 208° |
| 2026-04-30 19:57 | 37.00281 | 35.32338 | 35989 ft | 459 kts | 208° |
| 2026-04-30 19:57 | 36.94559 | 35.28766 | 35992 ft | 459 kts | 208° |
| 2026-04-30 19:58 | 36.88836 | 35.25198 | 35990 ft | 460 kts | 208° |
| 2026-04-30 19:58 | 36.83103 | 35.21631 | 35985 ft | 460 kts | 208° |
| 2026-04-30 19:59 | 36.77370 | 35.18070 | 35984 ft | 461 kts | 208° |
| 2026-04-30 20:00 | 36.68795 | 35.12754 | 35978 ft | 461 kts | 209° |
| 2026-04-30 20:00 | 36.63044 | 35.09196 | 35980 ft | 461 kts | 209° |
| 2026-04-30 20:01 | 36.54415 | 35.03869 | 35979 ft | 462 kts | 209° |
| 2026-04-30 20:01 | 36.48665 | 35.00327 | 35985 ft | 462 kts | 209° |
| 2026-04-30 20:02 | 36.40029 | 34.95018 | 35998 ft | 461 kts | 209° |
| 2026-04-30 20:03 | 36.31393 | 34.89722 | 35975 ft | 462 kts | 209° |
| 2026-04-30 20:03 | 36.25640 | 34.86201 | 35985 ft | 461 kts | 209° |
| 2026-04-30 20:04 | 36.19885 | 34.82685 | 35990 ft | 461 kts | 209° |
| 2026-04-30 20:05 | 36.11251 | 34.77421 | 35986 ft | 461 kts | 209° |
| 2026-04-30 20:05 | 36.02605 | 34.72161 | 35985 ft | 461 kts | 209° |
| 2026-04-30 20:06 | 35.96845 | 34.68666 | 35987 ft | 461 kts | 209° |
| 2026-04-30 20:06 | 35.91080 | 34.65172 | 35988 ft | 462 kts | 209° |
| 2026-04-30 20:07 | 35.85312 | 34.61683 | 35989 ft | 462 kts | 209° |
| 2026-04-30 20:08 | 35.76693 | 34.56480 | 35987 ft | 462 kts | 209° |
| 2026-04-30 20:08 | 35.70924 | 34.53004 | 35991 ft | 462 kts | 209° |
| 2026-04-30 20:09 | 35.65142 | 34.49525 | 35987 ft | 462 kts | 210° |
| 2026-04-30 20:09 | 35.56467 | 34.44318 | 35992 ft | 463 kts | 210° |
| 2026-04-30 20:10 | 35.47791 | 34.39122 | 35995 ft | 463 kts | 210° |
| 2026-04-30 20:11 | 35.39104 | 34.33932 | 35993 ft | 463 kts | 210° |
| 2026-04-30 20:11 | 35.33306 | 34.30475 | 35994 ft | 463 kts | 210° |
| 2026-04-30 20:12 | 35.24613 | 34.25302 | 35998 ft | 463 kts | 210° |
| 2026-04-30 20:13 | 35.18813 | 34.21857 | 35990 ft | 463 kts | 210° |
| 2026-04-30 20:13 | 35.13014 | 34.18419 | 35992 ft | 463 kts | 210° |
| 2026-04-30 20:14 | 35.07214 | 34.14986 | 35992 ft | 463 kts | 210° |
| 2026-04-30 20:14 | 35.01416 | 34.11559 | 35993 ft | 463 kts | 210° |
| 2026-04-30 20:15 | 34.95613 | 34.08136 | 35994 ft | 463 kts | 210° |
| 2026-04-30 20:15 | 34.89807 | 34.04715 | 35994 ft | 463 kts | 210° |
| 2026-04-30 20:16 | 34.84009 | 34.01305 | 35997 ft | 463 kts | 210° |
| 2026-04-30 20:16 | 34.78206 | 33.97897 | 35995 ft | 463 kts | 210° |
| 2026-04-30 20:17 | 34.72409 | 33.94498 | 35995 ft | 463 kts | 210° |
| 2026-04-30 20:17 | 34.66611 | 33.91104 | 35996 ft | 462 kts | 210° |
| 2026-04-30 20:18 | 34.60815 | 33.87714 | 36000 ft | 462 kts | 210° |
| 2026-04-30 20:18 | 34.55020 | 33.84329 | 35991 ft | 462 kts | 210° |
| 2026-04-30 20:19 | 34.48999 | 33.81530 | 35989 ft | 469 kts | 198° |
| 2026-04-30 20:19 | 34.42457 | 33.80729 | 35987 ft | 479 kts | 182° |
| 2026-04-30 20:20 | 34.35797 | 33.81304 | 35990 ft | 480 kts | 180° |
| 2026-04-30 20:20 | 34.29137 | 33.81829 | 35992 ft | 480 kts | 181° |
| 2026-04-30 20:21 | 34.22520 | 33.82338 | 35997 ft | 480 kts | 181° |
| 2026-04-30 20:21 | 34.15863 | 33.82851 | 35999 ft | 479 kts | 181° |
| 2026-04-30 20:22 | 34.09203 | 33.83366 | 36000 ft | 479 kts | 181° |
| 2026-04-30 20:22 | 34.02549 | 33.83879 | 36004 ft | 479 kts | 181° |
| 2026-04-30 20:23 | 33.95898 | 33.84383 | 36005 ft | 478 kts | 181° |
| 2026-04-30 20:23 | 33.89211 | 33.84886 | 35999 ft | 478 kts | 181° |
| 2026-04-30 20:24 | 33.82614 | 33.85383 | 35991 ft | 478 kts | 181° |
| 2026-04-30 20:24 | 33.75979 | 33.85895 | 35785 ft | 477 kts | 181° |
| 2026-04-30 20:24 | 33.72667 | 33.86155 | 35383 ft | 477 kts | 181° |
| 2026-04-30 20:25 | 33.66013 | 33.86670 | 33812 ft | 483 kts | 180° |
| 2026-04-30 20:25 | 33.62643 | 33.86929 | 32507 ft | 489 kts | 180° |
| 2026-04-30 20:26 | 33.55788 | 33.87462 | 30492 ft | 493 kts | 180° |
| 2026-04-30 20:26 | 33.49050 | 33.87992 | 29581 ft | 477 kts | 180° |
| 2026-04-30 20:26 | 33.45756 | 33.88250 | 29163 ft | 470 kts | 180° |
| 2026-04-30 20:27 | 33.39284 | 33.88750 | 28041 ft | 462 kts | 180° |
| 2026-04-30 20:27 | 33.32908 | 33.89240 | 26939 ft | 455 kts | 180° |
| 2026-04-30 20:28 | 33.26629 | 33.89724 | 25845 ft | 449 kts | 180° |
| 2026-04-30 20:28 | 33.20428 | 33.90202 | 24741 ft | 443 kts | 180° |
| 2026-04-30 20:29 | 33.15331 | 33.90585 | 23864 ft | 439 kts | 180° |
| 2026-04-30 20:30 | 33.06310 | 33.91243 | 22227 ft | 426 kts | 180° |
| 2026-04-30 20:30 | 32.97601 | 33.91880 | 20667 ft | 411 kts | 179° |
| 2026-04-30 20:31 | 32.89192 | 33.92496 | 19127 ft | 397 kts | 179° |
| 2026-04-30 20:32 | 32.81054 | 33.93092 | 17617 ft | 382 kts | 179° |
| 2026-04-30 20:32 | 32.75834 | 33.93475 | 16652 ft | 370 kts | 179° |
| 2026-04-30 20:33 | 32.73287 | 33.93661 | 16186 ft | 364 kts | 178° |
| 2026-04-30 20:33 | 32.68294 | 33.94025 | 15261 ft | 354 kts | 178° |
| 2026-04-30 20:33 | 32.65852 | 33.94203 | 14804 ft | 349 kts | 178° |
| 2026-04-30 20:34 | 32.61059 | 33.94551 | 13904 ft | 341 kts | 178° |
| 2026-04-30 20:34 | 32.56463 | 33.95474 | 13005 ft | 345 kts | 158° |
| 2026-04-30 20:35 | 32.54411 | 33.97029 | 12745 ft | 363 kts | 140° |
| 2026-04-30 20:35 | 32.52640 | 33.99221 | 12488 ft | 361 kts | 134° |
| 2026-04-30 20:35 | 32.49247 | 34.03556 | 11959 ft | 357 kts | 135° |
| 2026-04-30 20:36 | 32.47566 | 34.05668 | 11706 ft | 356 kts | 135° |
| 2026-04-30 20:36 | 32.45870 | 34.07785 | 11456 ft | 354 kts | 135° |
| 2026-04-30 20:36 | 32.42857 | 34.12335 | 10940 ft | 354 kts | 116° |
| 2026-04-30 20:37 | 32.42133 | 34.15113 | 10659 ft | 355 kts | 102° |
| 2026-04-30 20:37 | 32.41668 | 34.17946 | 10533 ft | 345 kts | 103° |
| 2026-04-30 20:37 | 32.41204 | 34.20681 | 10407 ft | 331 kts | 103° |
| 2026-04-30 20:37 | 32.40753 | 34.23265 | 10219 ft | 311 kts | 104° |
| 2026-04-30 20:38 | 32.40319 | 34.25702 | 9843 ft | 298 kts | 104° |
| 2026-04-30 20:38 | 32.39885 | 34.28099 | 9302 ft | 296 kts | 104° |
| 2026-04-30 20:38 | 32.39452 | 34.30470 | 8795 ft | 294 kts | 104° |
| 2026-04-30 20:39 | 32.38609 | 34.35098 | 8402 ft | 288 kts | 104° |
| 2026-04-30 20:39 | 32.38189 | 34.37412 | 8304 ft | 288 kts | 104° |
| 2026-04-30 20:39 | 32.37828 | 34.39397 | 8217 ft | 287 kts | 103° |
| 2026-04-30 20:40 | 32.36990 | 34.44012 | 7967 ft | 287 kts | 103° |
| 2026-04-30 20:40 | 32.36571 | 34.46312 | 7769 ft | 286 kts | 103° |
| 2026-04-30 20:40 | 32.36154 | 34.48605 | 7583 ft | 285 kts | 103° |
| 2026-04-30 20:41 | 32.35212 | 34.53142 | 7197 ft | 283 kts | 112° |
| 2026-04-30 20:41 | 32.34431 | 34.55267 | 7002 ft | 282 kts | 115° |
| 2026-04-30 20:41 | 32.33636 | 34.57396 | 6815 ft | 282 kts | 115° |
| 2026-04-30 20:41 | 32.32858 | 34.59514 | 6628 ft | 281 kts | 115° |
| 2026-04-30 20:42 | 32.32087 | 34.61632 | 6427 ft | 280 kts | 114° |
| 2026-04-30 20:42 | 32.31321 | 34.63744 | 6233 ft | 279 kts | 114° |
| 2026-04-30 20:42 | 32.29798 | 34.67950 | 5859 ft | 277 kts | 114° |
| 2026-04-30 20:43 | 32.29041 | 34.70036 | 5657 ft | 276 kts | 114° |
| 2026-04-30 20:43 | 32.28283 | 34.72124 | 5479 ft | 276 kts | 114° |
| 2026-04-30 20:43 | 32.27526 | 34.74202 | 5292 ft | 275 kts | 114° |
| 2026-04-30 20:44 | 32.26017 | 34.78341 | 5001 ft | 270 kts | 115° |
| 2026-04-30 20:44 | 32.25325 | 34.80292 | 4965 ft | 245 kts | 111° |
| 2026-04-30 20:44 | 32.24410 | 34.83881 | 4582 ft | 216 kts | 108° |
| 2026-04-30 20:45 | 32.23546 | 34.87227 | 4032 ft | 213 kts | 108° |
| 2026-04-30 20:45 | 32.23105 | 34.88917 | 3999 ft | 215 kts | 108° |
| 2026-04-30 20:45 | 32.22667 | 34.90598 | 4005 ft | 214 kts | 108° |
| 2026-04-30 20:46 | 32.21422 | 34.95390 | 3796 ft | 188 kts | 108° |
| 2026-04-30 20:46 | 32.21043 | 34.96835 | 3537 ft | 186 kts | 108° |
| 2026-04-30 20:47 | 32.19818 | 34.99435 | 2839 ft | 180 kts | 150° |
| 2026-04-30 20:47 | 32.18694 | 34.99769 | 2646 ft | 159 kts | 186° |
| 2026-04-30 20:48 | 32.16454 | 34.99243 | 2603 ft | 166 kts | 194° |
| 2026-04-30 20:48 | 32.15357 | 34.98846 | 2544 ft | 164 kts | 207° |
| 2026-04-30 20:48 | 32.14377 | 34.98161 | 2541 ft | 165 kts | 213° |
| 2026-04-30 20:48 | 32.13372 | 34.97515 | 2564 ft | 166 kts | 210° |
| 2026-04-30 20:49 | 32.12364 | 34.96860 | 2502 ft | 167 kts | 211° |
| 2026-04-30 20:49 | 32.11349 | 34.96203 | 2271 ft | 164 kts | 210° |
| 2026-04-30 20:49 | 32.10354 | 34.95557 | 2058 ft | 164 kts | 210° |
| 2026-04-30 20:50 | 32.08366 | 34.94267 | 1630 ft | 162 kts | 209° |
| 2026-04-30 20:50 | 32.07375 | 34.93625 | 1406 ft | 163 kts | 209° |
| 2026-04-30 20:50 | 32.06384 | 34.92982 | 1183 ft | 163 kts | 209° |
| 2026-04-30 20:50 | 32.05390 | 34.92338 | 960 ft | 163 kts | 209° |
| 2026-04-30 20:51 | 32.04394 | 34.91692 | 741 ft | 163 kts | 209° |
| 2026-04-30 20:51 | 32.02423 | 34.90395 | 357 ft | 162 kts | 210° |
| 2026-04-30 20:51 | 32.01439 | 34.89754 | 152 ft | 161 kts | 209° |
| 2026-04-30 20:52 | 32.00508 | 34.89164 | 120 ft | 133 kts | 207° |
| 2026-04-30 20:52 | 31.99899 | 34.88777 | 122 ft | 56 kts | 210° |
| 2026-04-30 20:52 | 31.99539 | 34.88560 | 121 ft | 3 kts | 139° |
| 2026-04-30 20:53 | 31.99543 | 34.88578 | 124 ft | 1 kts | 78° |
| 2026-04-30 20:53 | 31.99552 | 34.88583 | 120 ft | 2 kts | 42° |
| 2026-04-30 20:53 | 31.99611 | 34.88597 | 121 ft | 16 kts | 355° |
| 2026-04-30 20:54 | 31.99905 | 34.88558 | 121 ft | 30 kts | 27° |
| 2026-04-30 20:54 | 32.00059 | 34.88661 | 122 ft | 19 kts | 30° |
| 2026-04-30 20:54 | 32.00188 | 34.88627 | 122 ft | 22 kts | 300° |
| 2026-04-30 20:55 | 32.00404 | 34.88210 | 122 ft | 29 kts | 300° |
| 2026-04-30 20:55 | 32.00496 | 34.88030 | 121 ft | 20 kts | 298° |
| 2026-04-30 20:55 | 32.00496 | 34.87867 | 121 ft | 18 kts | 301° |
| 2026-04-30 20:56 | 32.00545 | 34.87606 | 123 ft | 10 kts | 273° |
| 2026-04-30 20:56 | 32.00552 | 34.87533 | 122 ft | 8 kts | 279° |
| 2026-04-30 20:56 | 32.00554 | 34.87521 | 122 ft | 0 kts | 279° |